sensor_id;sensor_type;location;lat;lon;timestamp;pressure;altitude;pressure_sealevel;temperature;humidity
39105;BME280;46464;51.154;13.812;2023-02-21T00:01:20;52391.31;;;-146.96;70.20
39105;BME280;46464;51.154;13.812;2023-02-21T00:04:05;52407.59;;;-146.96;70.84
39105;BME280;46464;51.154;13.812;2023-02-21T00:06:50;52370.97;;;-146.96;70.37
39105;BME280;46464;51.154;13.812;2023-02-21T00:09:37;52385.19;;;-146.96;69.65
39105;BME280;46464;51.154;13.812;2023-02-21T00:12:23;52411.66;;;-146.96;69.64
39105;BME280;46464;51.154;13.812;2023-02-21T00:15:08;52419.78;;;-146.96;69.42
39105;BME280;46464;51.154;13.812;2023-02-21T00:17:53;52381.13;;;-146.96;68.84
39105;BME280;46464;51.154;13.812;2023-02-21T00:20:38;52387.22;;;-146.96;68.57
39105;BME280;46464;51.154;13.812;2023-02-21T00:23:23;52413.69;;;-146.96;68.37
39105;BME280;46464;51.154;13.812;2023-02-21T00:26:08;52370.97;;;-146.96;68.30
39105;BME280;46464;51.154;13.812;2023-02-21T00:28:53;52377.06;;;-146.96;68.31
39105;BME280;46464;51.154;13.812;2023-02-21T00:31:38;52366.88;;;-146.96;68.62
39105;BME280;46464;51.154;13.812;2023-02-21T00:34:23;52399.44;;;-146.96;68.69
39105;BME280;46464;51.154;13.812;2023-02-21T00:37:08;52383.16;;;-146.96;68.94
39105;BME280;46464;51.154;13.812;2023-02-21T00:39:53;52375.03;;;-146.96;68.70
39105;BME280;46464;51.154;13.812;2023-02-21T00:42:38;52401.47;;;-146.96;69.30
39105;BME280;46464;51.154;13.812;2023-02-21T00:45:23;52415.72;;;-146.96;69.60
39105;BME280;46464;51.154;13.812;2023-02-21T00:48:08;52403.50;;;-146.96;69.61
39105;BME280;46464;51.154;13.812;2023-02-21T00:50:53;52417.75;;;-146.96;69.60
39105;BME280;46464;51.154;13.812;2023-02-21T00:53:39;52370.97;;;-146.96;69.71
39105;BME280;46464;51.154;13.812;2023-02-21T00:56:24;52395.38;;;-146.96;69.44
39105;BME280;46464;51.154;13.812;2023-02-21T00:59:10;52391.31;;;-146.96;69.61
39105;BME280;46464;51.154;13.812;2023-02-21T01:01:55;52383.16;;;-146.96;69.35
39105;BME280;46464;51.154;13.812;2023-02-21T01:04:39;52425.91;;;-146.96;69.17
39105;BME280;46464;51.154;13.812;2023-02-21T01:07:24;52375.03;;;-146.96;69.02
39105;BME280;46464;51.154;13.812;2023-02-21T01:10:09;52387.22;;;-146.96;68.83
39105;BME280;46464;51.154;13.812;2023-02-21T01:12:55;52387.22;;;-146.96;68.95
39105;BME280;46464;51.154;13.812;2023-02-21T01:15:39;52389.28;;;-146.96;68.69
39105;BME280;46464;51.154;13.812;2023-02-21T01:18:25;52352.66;;;-146.96;68.55
39105;BME280;46464;51.154;13.812;2023-02-21T01:21:15;52397.41;;;-146.96;68.52
39105;BME280;46464;51.154;13.812;2023-02-21T01:24:01;52350.59;;;-146.96;68.19
39105;BME280;46464;51.154;13.812;2023-02-21T01:26:47;52389.28;;;-146.96;68.48
39105;BME280;46464;51.154;13.812;2023-02-21T01:29:32;52360.78;;;-146.96;68.45
39105;BME280;46464;51.154;13.812;2023-02-21T01:32:18;52387.22;;;-146.96;68.44
39105;BME280;46464;51.154;13.812;2023-02-21T01:35:04;52368.94;;;-146.96;68.55
39105;BME280;46464;51.154;13.812;2023-02-21T01:37:49;52395.38;;;-146.96;68.44
39105;BME280;46464;51.154;13.812;2023-02-21T01:40:37;52391.31;;;-146.96;68.48
39105;BME280;46464;51.154;13.812;2023-02-21T01:43:24;52377.06;;;-146.96;68.35
39105;BME280;46464;51.154;13.812;2023-02-21T01:46:12;52332.28;;;-146.96;68.30
39105;BME280;46464;51.154;13.812;2023-02-21T01:49:01;52360.78;;;-146.96;68.12
39105;BME280;46464;51.154;13.812;2023-02-21T01:51:49;52375.03;;;-146.96;68.24
39105;BME280;46464;51.154;13.812;2023-02-21T01:54:38;52385.19;;;-146.96;68.30
39105;BME280;46464;51.154;13.812;2023-02-21T01:57:24;52405.56;;;-146.96;68.30
39105;BME280;46464;51.154;13.812;2023-02-21T02:00:12;52395.38;;;-146.96;68.22
39105;BME280;46464;51.154;13.812;2023-02-21T02:03:01;52381.13;;;-146.96;68.61
39105;BME280;46464;51.154;13.812;2023-02-21T02:05:59;52358.75;;;-146.96;68.45
39105;BME280;46464;51.154;13.812;2023-02-21T02:08:45;52373.00;;;-146.96;68.62
39105;BME280;46464;51.154;13.812;2023-02-21T02:26:11;52360.78;;;-146.96;68.70
39105;BME280;46464;51.154;13.812;2023-02-21T02:45:43;52383.16;;;-146.96;69.06
39105;BME280;46464;51.154;13.812;2023-02-21T02:48:34;52360.78;;;-146.96;69.21
39105;BME280;46464;51.154;13.812;2023-02-21T02:51:05;52401.47;;;-146.96;68.86
39105;BME280;46464;51.154;13.812;2023-02-21T02:53:33;52364.84;;;-146.96;68.92
39105;BME280;46464;51.154;13.812;2023-02-21T02:56:04;52364.84;;;-146.96;69.00
39105;BME280;46464;51.154;13.812;2023-02-21T02:58:36;52354.69;;;-146.96;69.16
39105;BME280;46464;51.154;13.812;2023-02-21T03:03:55;52358.75;;;-146.96;69.17
39105;BME280;46464;51.154;13.812;2023-02-21T03:06:47;52348.56;;;-146.96;68.83
39105;BME280;46464;51.154;13.812;2023-02-21T03:09:34;52352.66;;;-146.96;68.92
39105;BME280;46464;51.154;13.812;2023-02-21T03:15:26;52391.31;;;-146.96;69.36
39105;BME280;46464;51.154;13.812;2023-02-21T03:18:02;52364.84;;;-146.96;69.62
39105;BME280;46464;51.154;13.812;2023-02-21T03:20:31;52352.66;;;-146.96;69.47
39105;BME280;46464;51.154;13.812;2023-02-21T03:22:59;52375.03;;;-146.96;69.56
39105;BME280;46464;51.154;13.812;2023-02-21T03:25:29;52356.72;;;-146.96;69.71
39105;BME280;46464;51.154;13.812;2023-02-21T03:27:59;52354.69;;;-146.96;69.73
39105;BME280;46464;51.154;13.812;2023-02-21T03:30:27;52358.75;;;-146.96;69.94
39105;BME280;46464;51.154;13.812;2023-02-21T03:32:54;52346.53;;;-146.96;69.80
39105;BME280;46464;51.154;13.812;2023-02-21T03:35:22;52373.00;;;-146.96;69.67
39105;BME280;46464;51.154;13.812;2023-02-21T03:37:51;52362.81;;;-146.96;69.62
39105;BME280;46464;51.154;13.812;2023-02-21T03:42:50;52354.69;;;-146.96;69.64
39105;BME280;46464;51.154;13.812;2023-02-21T03:45:17;52362.81;;;-146.96;69.82
39105;BME280;46464;51.154;13.812;2023-02-21T03:47:43;52346.53;;;-146.96;70.00
39105;BME280;46464;51.154;13.812;2023-02-21T03:50:10;52362.81;;;-146.96;70.00
39105;BME280;46464;51.154;13.812;2023-02-21T03:52:37;52362.81;;;-146.96;70.08
39105;BME280;46464;51.154;13.812;2023-02-21T03:55:04;52375.03;;;-146.96;70.17
39105;BME280;46464;51.154;13.812;2023-02-21T03:57:31;52403.50;;;-146.96;70.17
39105;BME280;46464;51.154;13.812;2023-02-21T03:59:58;52383.16;;;-146.96;70.20
39105;BME280;46464;51.154;13.812;2023-02-21T04:02:25;52411.66;;;-146.96;70.51
39105;BME280;46464;51.154;13.812;2023-02-21T04:04:52;52356.72;;;-146.96;70.48
39105;BME280;46464;51.154;13.812;2023-02-21T04:07:19;52415.72;;;-146.96;70.52
39105;BME280;46464;51.154;13.812;2023-02-21T04:09:47;52383.16;;;-146.96;70.34
39105;BME280;46464;51.154;13.812;2023-02-21T04:12:14;52373.00;;;-146.96;70.40
39105;BME280;46464;51.154;13.812;2023-02-21T04:14:41;52368.94;;;-146.96;70.57
39105;BME280;46464;51.154;13.812;2023-02-21T04:17:07;52366.88;;;-146.96;70.42
39105;BME280;46464;51.154;13.812;2023-02-21T04:19:34;52395.38;;;-146.96;70.58
39105;BME280;46464;51.154;13.812;2023-02-21T04:22:00;52383.16;;;-146.96;70.47
39105;BME280;46464;51.154;13.812;2023-02-21T04:24:27;52362.81;;;-146.96;70.61
39105;BME280;46464;51.154;13.812;2023-02-21T04:26:54;52387.22;;;-146.96;70.73
39105;BME280;46464;51.154;13.812;2023-02-21T04:29:21;52366.88;;;-146.96;70.53
39105;BME280;46464;51.154;13.812;2023-02-21T04:31:47;52348.56;;;-146.96;70.72
39105;BME280;46464;51.154;13.812;2023-02-21T04:34:14;52381.13;;;-146.96;70.81
39105;BME280;46464;51.154;13.812;2023-02-21T04:36:41;52393.34;;;-146.96;70.99
39105;BME280;46464;51.154;13.812;2023-02-21T04:39:07;52356.72;;;-146.96;71.27
39105;BME280;46464;51.154;13.812;2023-02-21T04:41:34;52352.66;;;-146.96;71.35
39105;BME280;46464;51.154;13.812;2023-02-21T04:44:01;52334.34;;;-146.96;71.47
39105;BME280;46464;51.154;13.812;2023-02-21T04:46:27;52334.34;;;-146.96;71.43
39105;BME280;46464;51.154;13.812;2023-02-21T04:48:54;52375.03;;;-146.96;71.67
39105;BME280;46464;51.154;13.812;2023-02-21T04:51:22;52387.22;;;-146.96;71.57
39105;BME280;46464;51.154;13.812;2023-02-21T04:53:49;52328.22;;;-146.96;71.65
39105;BME280;46464;51.154;13.812;2023-02-21T04:56:22;52375.03;;;-146.96;71.65
39105;BME280;46464;51.154;13.812;2023-02-21T04:58:49;52354.69;;;-146.96;71.48
39105;BME280;46464;51.154;13.812;2023-02-21T05:01:16;52334.34;;;-146.96;71.72
39105;BME280;46464;51.154;13.812;2023-02-21T05:03:44;52362.81;;;-146.96;71.78
39105;BME280;46464;51.154;13.812;2023-02-21T05:06:17;52358.75;;;-146.96;72.06
39105;BME280;46464;51.154;13.812;2023-02-21T05:08:44;52364.84;;;-146.96;71.92
39105;BME280;46464;51.154;13.812;2023-02-21T05:11:10;52348.56;;;-146.96;71.98
39105;BME280;46464;51.154;13.812;2023-02-21T05:13:38;52352.66;;;-146.96;72.19
39105;BME280;46464;51.154;13.812;2023-02-21T05:16:05;52373.00;;;-146.96;72.06
39105;BME280;46464;51.154;13.812;2023-02-21T05:18:31;52346.53;;;-146.96;72.00
39105;BME280;46464;51.154;13.812;2023-02-21T05:20:59;52387.22;;;-146.96;72.01
39105;BME280;46464;51.154;13.812;2023-02-21T05:23:28;52350.59;;;-146.96;72.08
39105;BME280;46464;51.154;13.812;2023-02-21T05:26:03;52375.03;;;-146.96;72.02
39105;BME280;46464;51.154;13.812;2023-02-21T05:28:30;52348.56;;;-146.96;71.95
39105;BME280;46464;51.154;13.812;2023-02-21T05:30:57;52375.03;;;-146.96;72.22
39105;BME280;46464;51.154;13.812;2023-02-21T05:33:26;52377.06;;;-146.96;72.22
39105;BME280;46464;51.154;13.812;2023-02-21T05:35:53;52344.50;;;-146.96;72.23
39105;BME280;46464;51.154;13.812;2023-02-21T05:38:21;52375.03;;;-146.96;72.04
39105;BME280;46464;51.154;13.812;2023-02-21T05:40:48;52362.81;;;-146.96;72.17
39105;BME280;46464;51.154;13.812;2023-02-21T05:43:15;52356.72;;;-146.96;71.97
39105;BME280;46464;51.154;13.812;2023-02-21T05:45:42;52346.53;;;-146.96;72.01
39105;BME280;46464;51.154;13.812;2023-02-21T05:48:08;52360.78;;;-146.96;72.03
39105;BME280;46464;51.154;13.812;2023-02-21T05:50:35;52379.09;;;-146.96;71.96
39105;BME280;46464;51.154;13.812;2023-02-21T05:53:02;52385.19;;;-146.96;72.13
39105;BME280;46464;51.154;13.812;2023-02-21T05:55:28;52373.00;;;-146.96;72.11
39105;BME280;46464;51.154;13.812;2023-02-21T05:57:55;52340.44;;;-146.96;72.07
39105;BME280;46464;51.154;13.812;2023-02-21T06:00:27;52391.31;;;-146.96;72.26
39105;BME280;46464;51.154;13.812;2023-02-21T06:02:54;52354.69;;;-146.96;72.33
39105;BME280;46464;51.154;13.812;2023-02-21T06:05:22;52330.25;;;-146.96;72.22
39105;BME280;46464;51.154;13.812;2023-02-21T06:07:48;52377.06;;;-146.96;72.33
39105;BME280;46464;51.154;13.812;2023-02-21T06:10:16;52366.88;;;-146.96;72.31
39105;BME280;46464;51.154;13.812;2023-02-21T06:12:42;52358.75;;;-146.96;72.47
39105;BME280;46464;51.154;13.812;2023-02-21T06:15:09;52346.53;;;-146.96;72.63
39105;BME280;46464;51.154;13.812;2023-02-21T06:17:36;52360.78;;;-146.96;72.32
39105;BME280;46464;51.154;13.812;2023-02-21T06:20:03;52427.94;;;-146.96;72.64
39105;BME280;46464;51.154;13.812;2023-02-21T06:22:30;52377.06;;;-146.96;72.31
39105;BME280;46464;51.154;13.812;2023-02-21T06:24:57;52375.03;;;-146.96;72.56
39105;BME280;46464;51.154;13.812;2023-02-21T06:27:23;52379.09;;;-146.96;72.45
39105;BME280;46464;51.154;13.812;2023-02-21T06:29:50;52377.06;;;-146.96;72.17
39105;BME280;46464;51.154;13.812;2023-02-21T06:32:16;52373.00;;;-146.96;72.48
39105;BME280;46464;51.154;13.812;2023-02-21T06:34:43;52379.09;;;-146.96;72.06
39105;BME280;46464;51.154;13.812;2023-02-21T06:37:10;52356.72;;;-146.96;72.43
39105;BME280;46464;51.154;13.812;2023-02-21T06:39:39;52385.19;;;-146.96;72.50
39105;BME280;46464;51.154;13.812;2023-02-21T06:42:06;52356.72;;;-146.96;72.72
39105;BME280;46464;51.154;13.812;2023-02-21T06:44:32;52370.97;;;-146.96;72.58
39105;BME280;46464;51.154;13.812;2023-02-21T06:46:59;52391.31;;;-146.96;72.81
39105;BME280;46464;51.154;13.812;2023-02-21T06:49:25;52350.59;;;-146.96;73.15
39105;BME280;46464;51.154;13.812;2023-02-21T06:51:52;52389.28;;;-146.96;73.00
39105;BME280;46464;51.154;13.812;2023-02-21T06:54:18;52340.44;;;-146.96;72.60
39105;BME280;46464;51.154;13.812;2023-02-21T06:56:45;52373.00;;;-146.96;72.84
39105;BME280;46464;51.154;13.812;2023-02-21T06:59:11;52342.47;;;-146.96;72.50
39105;BME280;46464;51.154;13.812;2023-02-21T07:01:38;52397.41;;;-146.96;72.73
39105;BME280;46464;51.154;13.812;2023-02-21T07:04:04;52373.00;;;-146.96;73.11
39105;BME280;46464;51.154;13.812;2023-02-21T07:06:31;52383.16;;;-146.96;73.17
39105;BME280;46464;51.154;13.812;2023-02-21T07:08:59;52358.75;;;-146.96;72.82
39105;BME280;46464;51.154;13.812;2023-02-21T07:11:26;52358.75;;;-146.96;73.08
39105;BME280;46464;51.154;13.812;2023-02-21T07:13:53;52375.03;;;-146.96;73.19
39105;BME280;46464;51.154;13.812;2023-02-21T07:16:22;52360.78;;;-146.96;73.39
39105;BME280;46464;51.154;13.812;2023-02-21T07:18:48;52346.53;;;-146.96;73.33
39105;BME280;46464;51.154;13.812;2023-02-21T07:21:15;52366.88;;;-146.96;73.64
39105;BME280;46464;51.154;13.812;2023-02-21T07:23:43;52397.41;;;-146.96;73.10
39105;BME280;46464;51.154;13.812;2023-02-21T07:26:10;52364.84;;;-146.96;73.09
39105;BME280;46464;51.154;13.812;2023-02-21T07:28:37;52350.59;;;-146.96;73.36
39105;BME280;46464;51.154;13.812;2023-02-21T07:31:03;52362.81;;;-146.96;73.12
39105;BME280;46464;51.154;13.812;2023-02-21T07:33:30;52354.69;;;-146.96;73.00
39105;BME280;46464;51.154;13.812;2023-02-21T07:35:56;52383.16;;;-146.96;73.15
39105;BME280;46464;51.154;13.812;2023-02-21T07:38:25;52366.88;;;-146.96;73.25
39105;BME280;46464;51.154;13.812;2023-02-21T07:40:59;52362.81;;;-146.96;73.13
39105;BME280;46464;51.154;13.812;2023-02-21T07:43:28;52342.47;;;-146.96;72.86
39105;BME280;46464;51.154;13.812;2023-02-21T07:45:55;52328.22;;;-146.96;72.89
39105;BME280;46464;51.154;13.812;2023-02-21T07:48:22;52366.88;;;-146.96;72.74
39105;BME280;46464;51.154;13.812;2023-02-21T07:50:48;52360.78;;;-146.96;73.01
39105;BME280;46464;51.154;13.812;2023-02-21T07:53:15;52352.66;;;-146.96;72.98
39105;BME280;46464;51.154;13.812;2023-02-21T07:55:42;52352.66;;;-146.96;72.69
39105;BME280;46464;51.154;13.812;2023-02-21T07:58:09;52350.59;;;-146.96;72.77
39105;BME280;46464;51.154;13.812;2023-02-21T08:00:35;52342.47;;;-146.96;72.85
39105;BME280;46464;51.154;13.812;2023-02-21T08:03:05;52354.69;;;-146.96;72.92
39105;BME280;46464;51.154;13.812;2023-02-21T08:05:32;52354.69;;;-146.96;73.06
39105;BME280;46464;51.154;13.812;2023-02-21T08:07:58;52389.28;;;-146.96;73.06
39105;BME280;46464;51.154;13.812;2023-02-21T08:10:26;52370.97;;;-146.96;72.86
39105;BME280;46464;51.154;13.812;2023-02-21T08:12:53;52344.50;;;-146.96;72.97
39105;BME280;46464;51.154;13.812;2023-02-21T08:15:20;52362.81;;;-146.96;73.14
39105;BME280;46464;51.154;13.812;2023-02-21T08:17:47;52356.72;;;-146.96;73.07
39105;BME280;46464;51.154;13.812;2023-02-21T08:20:15;52352.66;;;-146.96;73.45
39105;BME280;46464;51.154;13.812;2023-02-21T08:22:41;52364.84;;;-146.96;73.49
39105;BME280;46464;51.154;13.812;2023-02-21T08:25:09;52322.13;;;-146.96;73.40
39105;BME280;46464;51.154;13.812;2023-02-21T08:27:43;52377.06;;;-146.96;73.56
39105;BME280;46464;51.154;13.812;2023-02-21T08:30:12;52352.66;;;-146.96;73.58
39105;BME280;46464;51.154;13.812;2023-02-21T08:32:39;52354.69;;;-146.96;73.73
39105;BME280;46464;51.154;13.812;2023-02-21T08:35:06;52377.06;;;-146.96;73.95
39105;BME280;46464;51.154;13.812;2023-02-21T08:37:33;52364.84;;;-146.96;73.89
39105;BME280;46464;51.154;13.812;2023-02-21T08:40:02;52393.34;;;-146.96;73.87
39105;BME280;46464;51.154;13.812;2023-02-21T08:42:29;52354.69;;;-146.96;73.78
39105;BME280;46464;51.154;13.812;2023-02-21T08:44:56;52356.72;;;-146.96;73.89
39105;BME280;46464;51.154;13.812;2023-02-21T08:47:23;52381.13;;;-146.96;73.76
39105;BME280;46464;51.154;13.812;2023-02-21T08:49:49;52379.09;;;-146.96;73.86
39105;BME280;46464;51.154;13.812;2023-02-21T08:52:17;52405.56;;;-146.96;74.00
39105;BME280;46464;51.154;13.812;2023-02-21T08:54:44;52354.69;;;-146.96;73.75
39105;BME280;46464;51.154;13.812;2023-02-21T08:57:11;52358.75;;;-146.96;74.00
39105;BME280;46464;51.154;13.812;2023-02-21T08:59:43;52373.00;;;-146.96;73.89
39105;BME280;46464;51.154;13.812;2023-02-21T09:02:18;52368.94;;;-146.96;73.62
39105;BME280;46464;51.154;13.812;2023-02-21T09:04:45;52358.75;;;-146.96;73.64
39105;BME280;46464;51.154;13.812;2023-02-21T09:07:13;52377.06;;;-146.96;73.82
39105;BME280;46464;51.154;13.812;2023-02-21T09:09:40;52336.38;;;-146.96;73.47
39105;BME280;46464;51.154;13.812;2023-02-21T09:12:07;52375.03;;;-146.96;73.76
39105;BME280;46464;51.154;13.812;2023-02-21T09:14:35;52358.75;;;-146.96;73.38
39105;BME280;46464;51.154;13.812;2023-02-21T09:17:04;52326.19;;;-146.96;73.65
39105;BME280;46464;51.154;13.812;2023-02-21T09:19:30;52389.28;;;-146.96;73.47
39105;BME280;46464;51.154;13.812;2023-02-21T09:21:57;52356.72;;;-146.96;73.10
39105;BME280;46464;51.154;13.812;2023-02-21T09:24:26;52338.41;;;-146.96;73.20
39105;BME280;46464;51.154;13.812;2023-02-21T09:26:54;52344.50;;;-146.96;72.89
39105;BME280;46464;51.154;13.812;2023-02-21T09:29:24;52322.13;;;-146.96;73.40
39105;BME280;46464;51.154;13.812;2023-02-21T09:32:00;52336.38;;;-146.96;74.77
39105;BME280;46464;51.154;13.812;2023-02-21T09:34:27;52362.81;;;-146.96;75.54
39105;BME280;46464;51.154;13.812;2023-02-21T09:36:54;52387.22;;;-146.96;75.10
39105;BME280;46464;51.154;13.812;2023-02-21T09:39:22;52342.47;;;-146.96;74.47
39105;BME280;46464;51.154;13.812;2023-02-21T09:41:50;52368.94;;;-146.96;74.32
39105;BME280;46464;51.154;13.812;2023-02-21T09:44:28;52377.06;;;-146.96;73.90
39105;BME280;46464;51.154;13.812;2023-02-21T09:47:02;52377.06;;;-146.96;73.97
39105;BME280;46464;51.154;13.812;2023-02-21T09:49:36;52354.69;;;-146.96;73.39
39105;BME280;46464;51.154;13.812;2023-02-21T09:52:04;52356.72;;;-146.96;73.14
39105;BME280;46464;51.154;13.812;2023-02-21T09:54:39;52338.41;;;-146.96;72.98
39105;BME280;46464;51.154;13.812;2023-02-21T09:57:11;52383.16;;;-146.96;72.93
39105;BME280;46464;51.154;13.812;2023-02-21T09:59:38;52318.06;;;-146.96;72.29
39105;BME280;46464;51.154;13.812;2023-02-21T10:05:17;52342.47;;;-146.96;72.15
39105;BME280;46464;51.154;13.812;2023-02-21T10:10:29;52328.22;;;-146.96;72.04
39105;BME280;46464;51.154;13.812;2023-02-21T10:21:24;52305.84;;;-146.96;71.81
39105;BME280;46464;51.154;13.812;2023-02-21T10:23:54;52313.97;;;-146.96;71.72
39105;BME280;46464;51.154;13.812;2023-02-21T10:26:27;52311.94;;;-146.96;71.53
39105;BME280;46464;51.154;13.812;2023-02-21T10:28:55;52305.84;;;-146.96;71.33
39105;BME280;46464;51.154;13.812;2023-02-21T10:31:30;52352.66;;;-146.96;71.56
39105;BME280;46464;51.154;13.812;2023-02-21T10:33:59;52297.72;;;-146.96;71.43
39105;BME280;46464;51.154;13.812;2023-02-21T10:36:27;52316.03;;;-146.96;71.39
39105;BME280;46464;51.154;13.812;2023-02-21T10:39:02;52285.50;;;-146.96;71.03
39105;BME280;46464;51.154;13.812;2023-02-21T10:41:33;52326.19;;;-146.96;70.47
39105;BME280;46464;51.154;13.812;2023-02-21T10:44:11;52318.06;;;-146.96;70.36
39105;BME280;46464;51.154;13.812;2023-02-21T10:46:43;52283.47;;;-146.96;70.57
39105;BME280;46464;51.154;13.812;2023-02-21T10:49:21;52281.44;;;-146.96;69.93
39105;BME280;46464;51.154;13.812;2023-02-21T10:54:34;52322.13;;;-146.96;69.89
39105;BME280;46464;51.154;13.812;2023-02-21T10:57:01;52313.97;;;-146.96;69.46
39105;BME280;46464;51.154;13.812;2023-02-21T10:59:40;52334.34;;;-146.96;69.46
39105;BME280;46464;51.154;13.812;2023-02-21T11:02:31;52293.63;;;-146.96;69.28
39105;BME280;46464;51.154;13.812;2023-02-21T11:05:11;52322.13;;;-146.96;69.25
39105;BME280;46464;51.154;13.812;2023-02-21T11:07:38;52342.47;;;-146.96;69.44
39105;BME280;46464;51.154;13.812;2023-02-21T11:10:26;52326.19;;;-146.96;69.22
39105;BME280;46464;51.154;13.812;2023-02-21T11:13:05;52328.22;;;-146.96;69.36
39105;BME280;46464;51.154;13.812;2023-02-21T11:15:32;52303.81;;;-146.96;69.68
39105;BME280;46464;51.154;13.812;2023-02-21T11:18:14;52311.94;;;-146.96;69.83
39105;BME280;46464;51.154;13.812;2023-02-21T11:20:42;52311.94;;;-146.96;69.67
39105;BME280;46464;51.154;13.812;2023-02-21T11:23:29;52332.28;;;-146.96;69.91
39105;BME280;46464;51.154;13.812;2023-02-21T11:25:59;52293.63;;;-146.96;70.00
39105;BME280;46464;51.154;13.812;2023-02-21T11:28:36;52330.25;;;-146.96;70.05
39105;BME280;46464;51.154;13.812;2023-02-21T11:31:10;52318.06;;;-146.96;70.13
39105;BME280;46464;51.154;13.812;2023-02-21T11:33:41;52316.03;;;-146.96;69.92
39105;BME280;46464;51.154;13.812;2023-02-21T11:36:16;52320.09;;;-146.96;70.17
39105;BME280;46464;51.154;13.812;2023-02-21T11:41:43;52379.09;;;-146.96;70.39
39105;BME280;46464;51.154;13.812;2023-02-21T11:44:40;52311.94;;;-146.96;69.83
39105;BME280;46464;51.154;13.812;2023-02-21T11:47:14;52340.44;;;-146.96;70.26
39105;BME280;46464;51.154;13.812;2023-02-21T11:52:15;52322.13;;;-146.96;70.62
39105;BME280;46464;51.154;13.812;2023-02-21T11:54:44;52293.63;;;-146.96;70.84
39105;BME280;46464;51.154;13.812;2023-02-21T11:57:33;52326.19;;;-146.96;70.93
39105;BME280;46464;51.154;13.812;2023-02-21T12:00:18;52322.13;;;-146.96;71.03
39105;BME280;46464;51.154;13.812;2023-02-21T12:03:17;52309.91;;;-146.96;70.41
39105;BME280;46464;51.154;13.812;2023-02-21T12:06:05;52326.19;;;-146.96;70.18
39105;BME280;46464;51.154;13.812;2023-02-21T12:11:15;52346.53;;;-146.96;69.99
39105;BME280;46464;51.154;13.812;2023-02-21T12:16:55;52318.06;;;-146.96;69.97
39105;BME280;46464;51.154;13.812;2023-02-21T12:25:33;52307.88;;;-146.96;69.83
39105;BME280;46464;51.154;13.812;2023-02-21T12:28:12;52313.97;;;-146.96;69.86
39105;BME280;46464;51.154;13.812;2023-02-21T12:31:05;52279.41;;;-146.96;70.26
39105;BME280;46464;51.154;13.812;2023-02-21T12:33:57;52307.88;;;-146.96;69.98
39105;BME280;46464;51.154;13.812;2023-02-21T12:39:24;52303.81;;;-146.96;70.18
39105;BME280;46464;51.154;13.812;2023-02-21T12:44:47;52303.81;;;-146.96;70.03
39105;BME280;46464;51.154;13.812;2023-02-21T12:47:27;52322.13;;;-146.96;70.14
39105;BME280;46464;51.154;13.812;2023-02-21T12:50:17;52320.09;;;-146.96;69.89
39105;BME280;46464;51.154;13.812;2023-02-21T12:55:23;52320.09;;;-146.96;69.97
39105;BME280;46464;51.154;13.812;2023-02-21T12:58:10;52291.59;;;-146.96;69.96
39105;BME280;46464;51.154;13.812;2023-02-21T13:00:42;52265.16;;;-146.96;69.42
39105;BME280;46464;51.154;13.812;2023-02-21T13:03:39;52318.06;;;-146.96;68.97
39105;BME280;46464;51.154;13.812;2023-02-21T13:07:03;52285.50;;;-146.96;69.25
39105;BME280;46464;51.154;13.812;2023-02-21T13:09:42;52309.91;;;-146.96;68.94
39105;BME280;46464;51.154;13.812;2023-02-21T13:12:18;52318.06;;;-146.96;68.97
39105;BME280;46464;51.154;13.812;2023-02-21T13:14:50;52332.28;;;-146.96;68.88
39105;BME280;46464;51.154;13.812;2023-02-21T13:17:19;52316.03;;;-146.96;68.92
39105;BME280;46464;51.154;13.812;2023-02-21T13:19:58;52305.84;;;-146.96;69.03
39105;BME280;46464;51.154;13.812;2023-02-21T13:25:22;52311.94;;;-146.96;68.95
39105;BME280;46464;51.154;13.812;2023-02-21T13:28:14;52299.75;;;-146.96;69.20
39105;BME280;46464;51.154;13.812;2023-02-21T13:30:49;52267.19;;;-146.96;69.10
39105;BME280;46464;51.154;13.812;2023-02-21T13:33:34;52326.19;;;-146.96;69.25
39105;BME280;46464;51.154;13.812;2023-02-21T13:36:23;52346.53;;;-146.96;69.46
39105;BME280;46464;51.154;13.812;2023-02-21T13:38:58;52305.84;;;-146.96;69.59
39105;BME280;46464;51.154;13.812;2023-02-21T13:41:27;52324.16;;;-146.96;69.03
39105;BME280;46464;51.154;13.812;2023-02-21T13:43:56;52265.16;;;-146.96;69.25
39105;BME280;46464;51.154;13.812;2023-02-21T13:55:22;52324.16;;;-146.96;69.31
39105;BME280;46464;51.154;13.812;2023-02-21T14:08:40;52320.09;;;-146.96;69.25
39105;BME280;46464;51.154;13.812;2023-02-21T14:13:55;52326.19;;;-146.96;69.25
39105;BME280;46464;51.154;13.812;2023-02-21T14:16:49;52340.44;;;-146.96;69.55
39105;BME280;46464;51.154;13.812;2023-02-21T14:19:22;52297.72;;;-146.96;69.39
39105;BME280;46464;51.154;13.812;2023-02-21T14:24:24;52326.19;;;-146.96;69.11
39105;BME280;46464;51.154;13.812;2023-02-21T14:43:09;52289.56;;;-146.96;69.75
39105;BME280;46464;51.154;13.812;2023-02-21T14:48:54;52281.44;;;-146.96;69.70
39105;BME280;46464;51.154;13.812;2023-02-21T15:02:38;52311.94;;;-146.96;70.27
39105;BME280;46464;51.154;13.812;2023-02-21T15:05:16;52328.22;;;-146.96;70.38
39105;BME280;46464;51.154;13.812;2023-02-21T15:10:28;52313.97;;;-146.96;70.18
39105;BME280;46464;51.154;13.812;2023-02-21T15:13:00;52309.91;;;-146.96;70.23
39105;BME280;46464;51.154;13.812;2023-02-21T15:15:31;52332.28;;;-146.96;70.43
39105;BME280;46464;51.154;13.812;2023-02-21T15:18:10;52307.88;;;-146.96;70.67
39105;BME280;46464;51.154;13.812;2023-02-21T15:20:43;52332.28;;;-146.96;70.21
39105;BME280;46464;51.154;13.812;2023-02-21T15:23:20;52342.47;;;-146.96;70.36
39105;BME280;46464;51.154;13.812;2023-02-21T15:25:57;52303.81;;;-146.96;70.61